Time;durP1;ratioP1;P1;durP2;ratioP2;P2;SDS_P1;SDS_P2;PMS_P1;PMS_P2;Temp;Humidity;BMP_temperature;BMP_pressure;BME280_temperature;BME280_humidity;BME280_pressure;Samples;Min_cycle;Max_cycle;Signal;HPM_P1;HPM_P2
2022/09/22 00:01:18;;;;;;;4.60;3.97;;;;;;;6.01;100.00;102039.03;6109151;23;20032;-74
2022/09/22 00:03:47;;;;;;;4.15;3.95;;;;;;;6.13;100.00;102044.09;6130633;23;20013;-74
2022/09/22 00:06:17;;;;;;;4.72;4.43;;;;;;;6.10;100.00;102050.22;6103267;23;20014;-73
2022/09/22 00:08:47;;;;;;;5.07;4.55;;;;;;;6.09;100.00;102047.63;6139175;23;20074;-74
2022/09/22 00:11:23;;;;;;;4.32;4.03;;;;;;;6.08;100.00;102051.13;6096691;23;20083;-73
2022/09/22 00:13:53;;;;;;;4.07;3.78;;;;;;;5.92;100.00;102037.38;6122331;23;20020;-74
2022/09/22 00:16:28;;;;;;;14.15;4.55;;;;;;;6.03;100.00;102047.69;6105952;23;21605;-74
2022/09/22 00:18:55;;;;;;;5.30;4.72;;;;;;;6.02;100.00;102046.84;6109828;23;20581;-73
2022/09/22 00:21:23;;;;;;;4.85;4.65;;;;;;;5.16;100.00;101915.78;6102691;23;20479;-73
2022/09/22 00:23:50;;;;;;;4.60;4.40;;;;;;;5.53;100.00;101971.78;6114368;23;20021;-73
2022/09/22 00:26:20;;;;;;;4.00;3.80;;;;;;;5.96;100.00;102047.75;6084345;23;20017;-73
2022/09/22 00:28:48;;;;;;;4.30;4.10;;;;;;;5.81;100.00;102027.03;6137850;23;20449;-74
2022/09/22 00:31:17;;;;;;;4.30;4.10;;;;;;;5.95;100.00;102051.25;6098687;23;20636;-73
2022/09/22 00:33:47;;;;;;;4.43;4.22;;;;;;;5.93;100.00;102050.38;6107304;23;20020;-73
2022/09/22 00:36:15;;;;;;;4.43;4.22;;;;;;;5.83;100.00;102029.63;6138451;23;20021;-74
2022/09/22 00:38:42;;;;;;;3.92;3.72;;;;;;;5.91;100.00;102046.03;6093538;23;20646;-73
2022/09/22 00:41:17;;;;;;;4.00;3.80;;;;;;;5.84;100.00;102040.06;6125404;23;20075;-73
2022/09/22 00:43:47;;;;;;;4.28;4.07;;;;;;;5.88;100.00;102041.75;6077695;23;20090;-73
2022/09/22 00:46:20;;;;;;;4.13;3.92;;;;;;;5.87;100.00;102045.22;6128444;23;20021;-74
2022/09/22 00:48:54;;;;;;;3.95;3.75;;;;;;;5.27;100.00;101935.63;6108998;23;20033;-73
2022/09/22 00:51:26;;;;;;;4.95;4.75;;;;;;;5.52;100.00;101994.38;6098556;23;20048;-74
2022/09/22 00:53:55;;;;;;;4.15;3.95;;;;;;;5.67;100.00;102026.34;6127263;23;20026;-74
2022/09/22 00:56:27;;;;;;;5.32;5.10;;;;;;;5.76;100.00;102041.88;6107250;23;20060;-74
2022/09/22 00:58:59;;;;;;;3.92;3.75;;;;;;;5.27;100.00;101972.94;6132962;23;20031;-73
2022/09/22 01:01:25;;;;;;;6.03;5.47;;;;;;;5.70;100.00;102034.13;6110635;23;20479;-74
2022/09/22 01:03:53;;;;;;;4.30;3.90;;;;;;;5.07;100.00;101952.31;6139778;23;20017;-73
2022/09/22 01:06:23;;;;;;;5.28;5.03;;;;;;;5.64;100.00;102032.44;6104488;23;20557;-74
2022/09/22 01:08:51;;;;;;;4.13;3.92;;;;;;;5.60;100.00;102034.22;6078246;23;20041;-72
2022/09/22 01:11:19;;;;;;;20.83;4.80;;;;;;;5.56;100.00;102024.69;6106698;23;20029;-74
2022/09/22 01:14:17;;;;;;;4.18;3.97;;;;;;;5.55;100.00;102020.38;6076841;23;20027;-74
2022/09/22 01:16:53;;;;;;;4.88;4.38;;;;;;;5.10;100.00;101960.06;6104947;23;20506;-74
2022/09/22 01:19:48;;;;;;;5.55;5.25;;;;;;;5.46;100.00;102004.00;6079380;23;20068;-73
2022/09/22 01:22:23;;;;;;;4.25;4.05;;;;;;;5.44;100.00;102004.00;6129580;23;20059;-74
2022/09/22 01:25:14;;;;;;;3.80;3.65;;;;;;;5.41;100.00;102004.00;6069839;23;20584;-73
2022/09/22 01:27:53;;;;;;;4.20;4.00;;;;;;;5.39;100.00;102004.06;6124283;23;20660;-73
2022/09/22 01:30:25;;;;;;;5.60;5.10;;;;;;;5.38;100.00;101997.09;6106787;23;20021;-73
2022/09/22 01:33:24;;;;;;;4.05;3.85;;;;;;;5.36;100.00;101995.41;6105020;23;20021;-73
2022/09/22 01:36:18;;;;;;;4.10;3.80;;;;;;;5.35;100.00;101996.25;6045765;23;20022;-74
2022/09/22 01:39:12;;;;;;;4.53;4.18;;;;;;;5.34;100.00;101992.81;6103421;23;20034;-73
2022/09/22 01:42:00;;;;;;;4.22;4.03;;;;;;;5.34;100.00;101992.81;6072858;23;20100;-73
2022/09/22 01:44:34;;;;;;;5.65;5.35;;;;;;;5.19;100.00;101972.13;6103587;23;20018;-74
2022/09/22 01:47:41;;;;;;;4.18;3.88;;;;;;;4.25;100.00;101824.72;6080009;23;20099;-73
2022/09/22 01:50:17;;;;;;;4.35;4.15;;;;;;;5.07;100.00;101941.00;6052471;23;20006;-74
2022/09/22 01:52:44;;;;;;;3.72;3.60;;;;;;;4.82;100.00;101906.56;6078665;23;20032;-74
2022/09/22 01:55:31;;;;;;;3.90;3.70;;;;;;;5.29;100.00;101989.41;6098415;23;20686;-75
2022/09/22 01:58:14;;;;;;;4.15;3.95;;;;;;;4.91;100.00;101924.69;6073976;23;20636;-74
2022/09/22 02:00:50;;;;;;;3.83;3.70;;;;;;;4.91;100.00;101920.38;6101561;23;20159;-74
2022/09/22 02:03:34;;;;;;;4.97;4.63;;;;;;;5.26;100.00;101980.75;6070870;23;20517;-75
2022/09/22 02:06:07;;;;;;;4.57;4.38;;;;;;;4.75;100.00;101905.75;6094453;23;20010;-73
2022/09/22 02:08:46;;;;;;;4.25;4.05;;;;;;;5.20;100.00;101971.25;6096429;23;20075;-73
2022/09/22 02:11:17;;;;;;;5.95;4.47;;;;;;;5.05;100.00;101943.66;6111370;23;20074;-73
2022/09/22 02:13:45;;;;;;;4.10;3.90;;;;;;;5.27;100.00;101977.25;6109087;23;20699;-73
2022/09/22 02:16:14;;;;;;;4.20;4.00;;;;;;;5.07;100.00;101938.41;6130865;23;20054;-73
2022/09/22 02:18:49;;;;;;;4.22;4.00;;;;;;;5.32;100.00;101970.28;6105786;23;20079;-73
2022/09/22 02:21:19;;;;;;;4.40;4.15;;;;;;;5.06;100.00;101921.94;6105942;23;20086;-73
2022/09/22 02:23:48;;;;;;;7.75;4.93;;;;;;;5.38;100.00;101972.81;6134584;23;20091;-73
2022/09/22 02:26:22;;;;;;;4.00;3.80;;;;;;;5.48;100.00;101971.00;6086111;23;20008;-74
2022/09/22 02:28:52;;;;;;;3.80;3.60;;;;;;;5.51;100.00;101948.41;6127649;23;20059;-73
2022/09/22 02:31:22;;;;;;;5.30;5.00;;;;;;;5.31;100.00;101896.53;6087976;23;20020;-73
2022/09/22 02:33:50;;;;;;;4.25;4.05;;;;;;;5.47;100.00;101905.03;6113603;23;20020;-73
2022/09/22 02:36:35;;;;;;;4.47;4.28;;;;;;;5.81;100.00;101948.88;6100127;23;20025;-73
2022/09/22 02:39:07;;;;;;;4.30;4.00;;;;;;;5.82;100.00;101944.56;6109716;23;20033;-74
2022/09/22 02:41:46;;;;;;;5.68;5.15;;;;;;;5.75;100.00;101922.91;6103389;23;20400;-73
2022/09/22 02:44:28;;;;;;;3.55;3.45;;;;;;;5.79;100.00;101915.06;6086198;23;20033;-74
2022/09/22 02:47:02;;;;;;;4.60;4.37;;;;;;;5.43;100.00;101847.81;6084708;23;20079;-73
2022/09/22 02:49:29;;;;;;;5.25;4.95;;;;;;;5.65;100.00;101895.28;6092026;23;20033;-73
2022/09/22 02:51:57;;;;;;;4.82;3.95;;;;;;;5.69;100.00;101913.47;6087212;23;20399;-73
2022/09/22 02:54:23;;;;;;;6.82;4.55;;;;;;;5.27;100.00;101852.31;6127126;23;20017;-73
2022/09/22 02:56:50;;;;;;;3.72;3.58;;;;;;;5.77;100.00;101935.06;6098816;23;20159;-72
2022/09/22 02:59:16;;;;;;;4.28;4.07;;;;;;;5.87;100.00;101937.53;6136554;23;20014;-73
2022/09/22 03:01:42;;;;;;;3.85;3.65;;;;;;;5.85;100.00;101923.66;6103456;23;20683;-73
2022/09/22 03:04:09;;;;;;;4.63;4.32;;;;;;;5.50;100.00;101876.34;6126915;23;20097;-73
2022/09/22 03:06:36;;;;;;;4.55;4.35;;;;;;;5.73;100.00;101924.69;6098149;23;20002;-73
2022/09/22 03:09:03;;;;;;;4.25;4.00;;;;;;;5.54;100.00;101904.06;6135549;23;20028;-73
2022/09/22 03:11:29;;;;;;;4.97;4.78;;;;;;;5.67;100.00;101925.63;6094597;23;20009;-73
2022/09/22 03:13:56;;;;;;;4.10;3.90;;;;;;;5.68;100.00;101924.75;6131647;23;20104;-72
2022/09/22 03:16:22;;;;;;;3.90;3.70;;;;;;;5.56;100.00;101910.13;6072387;23;20022;-73
2022/09/22 03:18:48;;;;;;;4.57;4.30;;;;;;;5.52;100.00;101898.03;6125476;23;20485;-72
2022/09/22 03:21:15;;;;;;;4.05;3.78;;;;;;;5.61;100.00;101915.28;6079661;23;20040;-73
2022/09/22 03:23:41;;;;;;;4.10;3.83;;;;;;;5.64;100.00;101919.59;6137691;23;20559;-73
2022/09/22 03:26:08;;;;;;;4.15;3.85;;;;;;;5.41;100.00;101879.06;6106670;23;20075;-74
2022/09/22 03:28:34;;;;;;;5.10;4.90;;;;;;;5.37;100.00;101865.25;6097272;23;20102;-74
2022/09/22 03:31:00;;;;;;;4.93;4.30;;;;;;;5.47;100.00;101879.00;6078218;23;20072;-73
2022/09/22 03:33:27;;;;;;;5.13;4.93;;;;;;;5.67;100.00;101911.72;6128947;23;20565;-74
2022/09/22 03:35:53;;;;;;;4.50;4.20;;;;;;;5.14;100.00;101817.78;6101731;23;20021;-74
2022/09/22 03:38:20;;;;;;;5.78;5.47;;;;;;;5.50;100.00;101884.16;6133543;23;20021;-73
2022/09/22 03:40:51;;;;;;;4.35;4.15;;;;;;;5.66;100.00;101903.06;6103896;23;20032;-73
2022/09/22 03:43:18;;;;;;;4.75;4.55;;;;;;;5.42;100.00;101870.38;6128316;23;20024;-73
2022/09/22 03:45:45;;;;;;;4.15;3.80;;;;;;;5.53;100.00;101889.34;6090552;23;20032;-73
2022/09/22 03:48:11;;;;;;;3.63;3.50;;;;;;;5.56;100.00;101904.91;6128487;23;20026;-74
2022/09/22 03:50:37;;;;;;;4.40;4.20;;;;;;;5.52;100.00;101904.97;6087854;23;20021;-73
2022/09/22 03:53:04;;;;;;;4.13;3.92;;;;;;;5.06;100.00;101832.63;6126779;23;20024;-73
2022/09/22 03:55:30;;;;;;;5.47;5.03;;;;;;;5.19;100.00;101858.50;6072875;23;20669;-74
2022/09/22 03:57:57;;;;;;;3.90;3.70;;;;;;;5.50;100.00;101901.53;6101935;23;20029;-73
2022/09/22 04:00:23;;;;;;;4.85;4.65;;;;;;;4.91;100.00;101810.22;6070386;23;20018;-74
2022/09/22 04:02:50;;;;;;;3.85;3.65;;;;;;;5.03;100.00;101830.03;6131665;23;20058;-74
2022/09/22 04:05:16;;;;;;;4.47;4.28;;;;;;;5.40;100.00;101883.41;6103391;23;20543;-74
2022/09/22 04:07:43;;;;;;;4.25;4.00;;;;;;;5.50;100.00;101899.78;6128618;23;20054;-74
2022/09/22 04:10:09;;;;;;;3.67;3.58;;;;;;;5.37;100.00;101898.19;6104409;23;20882;-74
2022/09/22 04:12:36;;;;;;;4.03;3.80;;;;;;;5.46;100.00;101899.84;6128604;23;20036;-74
2022/09/22 04:15:03;;;;;;;3.70;3.60;;;;;;;5.43;100.00;101890.31;6083821;23;20089;-73
2022/09/22 04:17:29;;;;;;;5.20;5.00;;;;;;;5.27;100.00;101873.16;6107125;23;20021;-74
2022/09/22 04:19:56;;;;;;;3.90;3.70;;;;;;;4.85;100.00;101794.69;6110398;23;20481;-72
2022/09/22 04:22:22;;;;;;;18.02;6.10;;;;;;;4.95;100.00;101810.19;6106264;23;20075;-73
2022/09/22 04:24:49;;;;;;;3.50;3.40;;;;;;;5.33;100.00;101883.50;6125490;23;20017;-73
2022/09/22 04:27:15;;;;;;;3.88;3.67;;;;;;;5.35;100.00;101881.72;6109259;23;20018;-73
2022/09/22 04:29:46;;;;;;;3.65;3.55;;;;;;;5.23;100.00;101867.09;6103281;23;20042;-73
2022/09/22 04:32:13;;;;;;;3.75;3.65;;;;;;;5.20;100.00;101869.75;6138030;23;20027;-72
2022/09/22 04:34:40;;;;;;;3.70;3.60;;;;;;;5.31;100.00;101885.25;6077144;23;20009;-73
2022/09/22 04:37:06;;;;;;;4.18;3.97;;;;;;;5.23;100.00;101887.06;6109730;23;20095;-73
2022/09/22 04:39:33;;;;;;;5.65;5.35;;;;;;;5.26;100.00;101881.84;6095922;23;20732;-73
2022/09/22 04:41:59;;;;;;;4.05;3.85;;;;;;;5.27;100.00;101875.75;6129503;23;20024;-72
2022/09/22 04:44:26;;;;;;;6.03;5.63;;;;;;;5.24;100.00;101866.25;6100775;23;20010;-73
2022/09/22 04:46:54;;;;;;;3.80;3.70;;;;;;;5.23;100.00;101882.72;6136537;23;20512;-73
2022/09/22 04:49:21;;;;;;;5.78;5.47;;;;;;;4.90;100.00;101826.72;6103567;23;20017;-73
2022/09/22 04:51:47;;;;;;;4.72;4.03;;;;;;;5.21;100.00;101879.28;6109243;23;20021;-74
2022/09/22 04:54:14;;;;;;;3.40;3.30;;;;;;;5.22;100.00;101895.78;6121741;23;20029;-73
2022/09/22 04:56:41;;;;;;;4.00;3.80;;;;;;;5.20;100.00;101883.63;6100389;23;20634;-73
2022/09/22 04:59:08;;;;;;;3.67;3.47;;;;;;;4.77;100.00;101819.06;6113071;23;20013;-73
2022/09/22 05:01:35;;;;;;;5.07;4.78;;;;;;;5.14;100.00;101882.84;6099322;23;20605;-73
2022/09/22 05:04:01;;;;;;;4.05;3.85;;;;;;;4.85;100.00;101849.31;6101608;23;20010;-73
2022/09/22 05:06:28;;;;;;;5.72;5.43;;;;;;;5.10;100.00;101887.22;6085360;23;20037;-73
2022/09/22 05:08:55;;;;;;;4.05;3.85;;;;;;;4.68;100.00;101821.72;6134323;23;20029;-74
2022/09/22 05:11:22;;;;;;;4.97;4.68;;;;;;;5.12;100.00;101885.44;6109127;23;20781;-73
2022/09/22 05:13:52;;;;;;;3.83;3.63;;;;;;;5.16;100.00;101894.09;6122173;23;20007;-73
2022/09/22 05:16:18;;;;;;;4.35;4.15;;;;;;;5.12;100.00;101885.44;6126421;23;20020;-72
2022/09/22 05:18:45;;;;;;;3.60;3.42;;;;;;;5.08;100.00;101880.31;6137307;23;21715;-73
2022/09/22 05:21:11;;;;;;;3.42;3.33;;;;;;;5.04;100.00;101894.22;6141809;23;20689;-74
2022/09/22 05:23:38;;;;;;;3.97;3.78;;;;;;;4.99;100.00;101876.91;6134563;23;20828;-75
2022/09/22 05:26:05;;;;;;;4.53;4.22;;;;;;;4.98;100.00;101890.78;6132759;23;20029;-73
2022/09/22 05:28:34;;;;;;;4.70;4.40;;;;;;;4.77;100.00;101854.56;6134259;23;20738;-73
2022/09/22 05:31:00;;;;;;;4.00;3.80;;;;;;;4.98;100.00;101888.19;6130650;23;20564;-73
2022/09/22 05:33:27;;;;;;;5.95;4.55;;;;;;;5.03;100.00;101895.09;6102092;23;20075;-73
2022/09/22 05:35:53;;;;;;;4.28;4.07;;;;;;;4.56;100.00;101807.09;6124844;23;20013;-75
2022/09/22 05:38:20;;;;;;;4.75;4.55;;;;;;;4.77;100.00;101847.66;6132516;23;20017;-75
2022/09/22 05:40:47;;;;;;;3.47;3.38;;;;;;;4.92;100.00;101870.03;6114121;23;20010;-75
2022/09/22 05:43:13;;;;;;;3.78;3.58;;;;;;;4.99;100.00;101858.72;6120120;23;20644;-75
2022/09/22 05:45:41;;;;;;;3.97;3.78;;;;;;;5.20;100.00;101882.78;6116152;23;20025;-74
2022/09/22 05:48:07;;;;;;;4.47;4.25;;;;;;;5.15;100.00;101874.13;6121383;23;20051;-74
2022/09/22 05:50:33;;;;;;;4.65;4.45;;;;;;;5.27;100.00;101896.56;6139069;23;20020;-75
2022/09/22 05:53:05;;;;;;;4.45;3.80;;;;;;;5.31;100.00;101880.03;6122705;23;20025;-74
2022/09/22 05:55:32;;;;;;;4.13;3.92;;;;;;;5.33;100.00;101884.38;6131023;23;20090;-75
2022/09/22 05:57:59;;;;;;;5.03;3.72;;;;;;;5.35;100.00;101882.63;6115665;23;20081;-73
2022/09/22 06:00:26;;;;;;;5.63;5.32;;;;;;;5.40;100.00;101886.00;6111679;23;20022;-74
2022/09/22 06:02:52;;;;;;;4.18;3.97;;;;;;;5.45;100.00;101887.69;6142349;23;20044;-74
2022/09/22 06:05:19;;;;;;;5.35;5.05;;;;;;;5.49;100.00;101885.06;6094547;23;20100;-73
2022/09/22 06:07:47;;;;;;;4.00;3.80;;;;;;;5.39;100.00;101857.38;6131483;23;20009;-74
2022/09/22 06:10:14;;;;;;;4.07;3.88;;;;;;;5.60;100.00;101883.16;6108069;23;20020;-75
2022/09/22 06:12:40;;;;;;;4.47;4.18;;;;;;;5.68;100.00;101879.63;6121928;23;20013;-74
2022/09/22 06:15:07;;;;;;;3.92;3.72;;;;;;;4.53;100.00;101684.09;6087049;23;20013;-76
2022/09/22 06:17:33;;;;;;;4.88;4.60;;;;;;;5.19;100.00;101793.44;6075744;23;20022;-75
2022/09/22 06:20:00;;;;;;;4.25;4.05;;;;;;;5.84;100.00;101895.91;6132392;23;20093;-76
2022/09/22 06:22:26;;;;;;;5.60;5.30;;;;;;;5.56;100.00;101826.81;6099639;23;20045;-74
2022/09/22 06:24:53;;;;;;;4.10;3.88;;;;;;;5.95;100.00;101875.78;6126081;23;20012;-75
2022/09/22 06:27:19;;;;;;;5.22;4.93;;;;;;;5.52;100.00;101822.53;6101395;23;20124;-74
2022/09/22 06:29:45;;;;;;;4.28;4.07;;;;;;;4.82;100.00;101669.91;6135057;23;20036;-74
2022/09/22 06:32:12;;;;;;;4.05;3.85;;;;;;;5.02;100.00;101693.06;6109455;23;21188;-73
2022/09/22 06:34:39;;;;;;;4.22;4.03;;;;;;;6.13;100.00;101854.72;6105676;23;20703;-73
2022/09/22 06:37:08;;;;;;;4.07;3.88;;;;;;;6.31;100.00;101874.38;6102494;23;20118;-76
2022/09/22 06:39:37;;;;;;;4.35;4.15;;;;;;;6.41;100.00;101887.28;6132065;23;20016;-74
2022/09/22 06:42:04;;;;;;;4.03;3.83;;;;;;;6.02;100.00;101795.81;6100951;23;20037;-75
2022/09/22 06:44:31;;;;;;;5.95;5.55;;;;;;;6.55;100.00;101869.66;6118609;23;20066;-76
2022/09/22 06:46:57;;;;;;;4.13;3.92;;;;;;;6.37;100.00;101818.69;6099176;23;20020;-73
2022/09/22 06:49:25;;;;;;;6.88;6.32;;;;;;;6.33;100.00;101785.72;6127959;23;20089;-74
2022/09/22 06:51:51;;;;;;;4.30;4.10;;;;;;;7.00;100.00;101882.81;6093679;23;20407;-74
2022/09/22 06:54:17;;;;;;;6.97;6.57;;;;;;;7.11;100.00;101878.25;6109130;23;20075;-74
2022/09/22 06:56:46;;;;;;;5.28;4.88;;;;;;;7.18;100.00;101871.19;6103582;23;20090;-74
2022/09/22 06:59:13;;;;;;;4.88;4.47;;;;;;;7.15;100.00;101860.78;6099115;23;20090;-73
2022/09/22 07:01:40;;;;;;;4.80;4.40;;;;;;;7.44;100.00;101872.38;6125224;23;20081;-73
2022/09/22 07:04:08;;;;;;;4.50;4.25;;;;;;;7.57;100.00;101871.25;6093452;23;20025;-74
2022/09/22 07:06:36;;;;;;;5.28;5.00;;;;;;;7.73;100.00;101869.19;6091060;23;20010;-73
2022/09/22 07:09:03;;;;;;;4.75;4.10;;;;;;;7.47;100.00;101800.06;6074237;23;20115;-76
2022/09/22 07:11:30;;;;;;;6.22;5.93;;;;;;;7.89;100.00;101848.81;6094452;23;20047;-73
2022/09/22 07:13:57;;;;;;;4.88;4.57;;;;;;;8.15;100.00;101869.13;6125745;23;20013;-74
2022/09/22 07:16:25;;;;;;;5.20;4.90;;;;;;;8.30;100.00;101868.78;6093790;23;20029;-75
2022/09/22 07:18:53;;;;;;;4.55;4.28;;;;;;;8.33;100.00;101866.06;6098400;23;20028;-75
2022/09/22 07:21:26;;;;;;;5.53;5.25;;;;;;;8.62;100.00;101884.59;6123379;23;20021;-75
2022/09/22 07:23:53;;;;;;;;;;;;;;;8.81;100.00;101879.75;6098925;23;20018;-75
2022/09/22 07:26:25;;;;;;;5.47;5.28;;;;;;;8.85;100.00;101863.06;6122903;23;19978;-75
2022/09/22 07:28:52;;;;;;;4.45;4.25;;;;;;;9.06;100.00;101873.00;6131697;23;20021;-75
2022/09/22 07:31:20;;;;;;;5.80;5.50;;;;;;;9.21;100.00;101873.47;6103795;23;20010;-74
2022/09/22 07:33:54;;;;;;;5.85;5.35;;;;;;;9.35;100.00;101877.41;6110745;23;20707;-74
2022/09/22 07:36:24;;;;;;;5.97;5.68;;;;;;;9.48;100.00;101874.44;6102052;23;20006;-76
2022/09/22 07:38:53;;;;;;;5.63;5.22;;;;;;;9.43;100.00;101869.34;6090740;23;20041;-75
2022/09/22 07:41:22;;;;;;;7.03;6.43;;;;;;;9.71;100.00;101881.66;6088475;23;20025;-74
2022/09/22 07:43:51;;;;;;;5.82;5.43;;;;;;;9.15;100.00;101754.88;6123858;23;20025;-77
2022/09/22 07:46:18;;;;;;;5.05;4.75;;;;;;;9.38;100.00;101793.50;6100370;23;20091;-77
2022/09/22 07:48:46;;;;;;;6.25;5.68;;;;;;;9.15;100.00;101717.34;6108252;23;20021;-74
2022/09/22 07:51:18;;;;;;;4.70;4.50;;;;;;;10.24;100.00;101858.13;6098641;23;20625;-75
2022/09/22 07:53:50;;;;;;;5.30;5.00;;;;;;;10.49;100.00;101867.88;6135960;23;20005;-76
2022/09/22 07:56:20;;;;;;;4.82;4.63;;;;;;;10.65;100.00;101868.22;6095625;23;20418;-76
2022/09/22 07:58:49;;;;;;;5.55;5.20;;;;;;;10.66;100.00;101857.66;6125264;23;20067;-76
2022/09/22 08:01:17;;;;;;;4.80;4.60;;;;;;;10.45;100.00;101804.13;6099175;23;20043;-75
2022/09/22 08:03:46;;;;;;;5.03;4.82;;;;;;;11.06;100.00;101874.66;6131436;23;20158;-75
2022/09/22 08:06:15;;;;;;;5.10;4.80;;;;;;;10.89;100.00;101833.25;6097423;23;20009;-76
2022/09/22 08:08:45;;;;;;;5.00;4.70;;;;;;;11.23;100.00;101865.34;6116287;23;20025;-75
2022/09/22 08:11:15;;;;;;;6.18;5.38;;;;;;;10.14;100.00;101684.47;6097561;23;20018;-75
2022/09/22 08:13:49;;;;;;;6.18;5.38;;;;;;;11.02;100.00;101806.53;6106125;23;20032;-76
2022/09/22 08:16:21;;;;;;;5.68;5.25;;;;;;;10.58;100.00;101715.31;6094755;23;20025;-76
2022/09/22 08:18:57;;;;;;;5.78;5.38;;;;;;;11.56;100.00;101857.97;6126648;23;20458;-74
2022/09/22 08:21:25;;;;;;;6.53;6.20;;;;;;;11.81;100.00;101868.41;6087304;23;20026;-76
2022/09/22 08:23:53;;;;;;;11.27;5.00;;;;;;;11.93;100.00;101861.84;6103956;23;20009;-75
2022/09/22 08:26:20;;;;;;;7.40;6.80;;;;;;;11.94;100.00;101830.22;6093326;23;20091;-76
2022/09/22 08:28:54;;;;;;;5.65;5.25;;;;;;;12.13;100.00;101869.81;6122203;23;20232;-75
2022/09/22 08:31:22;;;;;;;7.28;6.85;;;;;;;11.97;100.00;101818.72;6101079;23;20226;-76
2022/09/22 08:33:51;;;;;;;6.30;5.80;;;;;;;11.98;100.00;101813.38;6125898;23;20233;-75
2022/09/22 08:36:17;;;;;;;5.55;5.25;;;;;;;12.55;100.00;101876.88;6094156;23;20087;-75
2022/09/22 08:38:48;;;;;;;6.10;5.70;;;;;;;12.28;100.00;101804.31;6105171;23;20521;-74
2022/09/22 08:41:20;;;;;;;5.85;5.47;;;;;;;12.57;100.00;101818.91;6117324;23;20088;-76
2022/09/22 08:43:57;;;;;;;6.82;6.25;;;;;;;12.83;100.00;101870.47;6100810;23;20029;-77
2022/09/22 08:46:30;;;;;;;6.65;6.18;;;;;;;12.45;100.00;101814.13;6124378;23;20074;-76
2022/09/22 08:52:37;;;;;;;7.00;6.40;;;;;;;12.89;97.44;101830.66;6021649;23;20014;-75
2022/09/22 08:55:11;;;;;;;6.05;5.65;;;;;;;13.30;97.22;101872.81;6109537;23;20018;-75
2022/09/22 08:58:01;;;;;;;5.72;5.38;;;;;;;13.13;96.83;101812.91;6100267;23;20560;-75
2022/09/22 09:00:38;;;;;;;8.02;7.50;;;;;;;13.43;94.69;101870.50;6129522;23;20025;-76
2022/09/22 09:03:25;;;;;;;6.15;5.82;;;;;;;13.66;92.59;101860.66;6107944;23;20018;-75
2022/09/22 09:06:08;;;;;;;6.20;5.75;;;;;;;13.81;92.09;101874.91;6099536;23;20020;-75
2022/09/22 09:09:00;;;;;;;7.38;5.50;;;;;;;14.03;86.76;101872.97;6103502;23;20033;-75
2022/09/22 09:11:58;;;;;;;7.57;6.88;;;;;;;14.24;86.85;101878.13;6062235;23;20036;-75
2022/09/22 09:14:43;;;;;;;6.95;6.55;;;;;;;14.36;86.34;101877.53;6125710;23;20025;-76
2022/09/22 09:17:23;;;;;;;5.50;5.20;;;;;;;14.37;85.86;101855.47;6073127;23;20056;-75
2022/09/22 09:19:56;;;;;;;6.00;5.65;;;;;;;14.09;84.74;101779.41;6092617;23;20138;-77
2022/09/22 09:22:31;;;;;;;6.70;6.20;;;;;;;14.17;83.76;101787.81;6075248;23;20077;-75
2022/09/22 09:25:24;;;;;;;5.60;5.30;;;;;;;14.68;81.92;101844.25;6091051;23;20066;-77
2022/09/22 09:27:57;;;;;;;5.68;5.38;;;;;;;14.90;81.49;101867.78;6067615;23;20056;-76
2022/09/22 09:30:24;;;;;;;6.25;5.95;;;;;;;14.62;81.21;101818.16;6107486;23;20009;-75
2022/09/22 09:33:13;;;;;;;5.75;5.45;;;;;;;15.07;81.85;101850.19;6071092;23;20078;-76
2022/09/22 09:35:52;;;;;;;6.25;5.70;;;;;;;15.29;77.00;101871.06;6126952;23;20782;-77
2022/09/22 09:38:29;;;;;;;6.65;6.20;;;;;;;15.50;76.30;101863.78;6066374;23;20657;-76
2022/09/22 09:41:20;;;;;;;6.55;5.38;;;;;;;15.64;75.10;101863.88;6100231;23;20094;-75
2022/09/22 09:43:47;;;;;;;5.80;5.50;;;;;;;15.05;74.66;101773.59;6097161;23;20032;-75
2022/09/22 09:46:25;;;;;;;6.35;5.95;;;;;;;15.30;72.64;101774.94;6126692;23;20073;-76
2022/09/22 09:49:04;;;;;;;5.60;5.30;;;;;;;15.89;72.96;101851.94;6067100;23;20026;-77
2022/09/22 09:51:34;;;;;;;7.50;6.80;;;;;;;15.79;71.62;101801.31;6092759;23;20753;-76
2022/09/22 09:54:08;;;;;;;6.03;5.72;;;;;;;16.09;70.23;101832.28;6060244;23;20030;-76
2022/09/22 09:57:05;;;;;;;5.70;5.40;;;;;;;16.20;69.98;101844.94;6106199;23;20017;-77
2022/09/22 10:02:34;;;;;;;7.43;6.93;;;;;;;16.28;68.54;101798.50;6102425;23;20599;-76
2022/09/22 10:05:14;;;;;;;5.53;5.22;;;;;;;16.64;66.68;101831.72;6078551;23;20052;-76
2022/09/22 10:07:44;;;;;;;5.38;5.07;;;;;;;16.49;66.36;101811.41;6100289;23;20025;-76
2022/09/22 10:10:28;;;;;;;6.20;5.75;;;;;;;16.11;68.23;101695.34;6109640;23;20041;-77
2022/09/22 10:13:15;;;;;;;5.90;5.50;;;;;;;16.96;67.65;101826.31;6101007;23;20015;-76
2022/09/22 10:16:00;;;;;;;5.97;5.57;;;;;;;16.55;65.58;101764.19;6091167;23;20052;-75
2022/09/22 10:18:34;;;;;;;;;;;;;;;17.11;64.08;101825.34;6129855;23;20049;-75
2022/09/22 10:21:20;;;;;;;5.40;5.10;;;;;;;17.22;63.75;101826.47;6078411;23;19909;-76
2022/09/22 10:23:48;;;;;;;5.57;5.28;;;;;;;17.21;62.17;101799.09;6116776;23;20025;-75
2022/09/22 10:26:26;;;;;;;5.53;5.22;;;;;;;16.36;62.53;101673.53;6108298;23;20009;-74
2022/09/22 10:29:11;;;;;;;5.60;5.30;;;;;;;17.22;60.05;101832.66;6137899;23;20028;-76
2022/09/22 10:31:41;;;;;;;6.10;5.70;;;;;;;17.29;60.76;101811.88;6100465;23;20094;-75
2022/09/22 10:34:30;;;;;;;6.22;5.80;;;;;;;17.27;60.47;101817.28;6110309;23;20013;-74
2022/09/22 10:36:58;;;;;;;5.65;5.25;;;;;;;17.29;62.35;101817.19;6105102;23;20025;-75
2022/09/22 10:39:34;;;;;;;6.97;6.57;;;;;;;14.48;59.82;101334.63;6134836;23;20013;-76
2022/09/22 10:42:06;;;;;;;5.07;4.78;;;;;;;17.32;59.94;101803.75;6103722;23;20097;-75
2022/09/22 10:44:33;;;;;;;6.18;5.82;;;;;;;17.32;59.44;101771.91;6110783;23;20412;-75
2022/09/22 10:47:26;;;;;;;5.75;5.25;;;;;;;17.75;60.05;101806.31;6081272;23;20088;-75
2022/09/22 10:50:30;;;;;;;5.68;5.38;;;;;;;17.97;58.71;101807.59;6139295;23;20020;-75
2022/09/22 10:53:28;;;;;;;5.53;5.22;;;;;;;18.11;56.66;101815.50;6103868;23;20576;-76
2022/09/22 10:56:07;;;;;;;5.60;5.20;;;;;;;17.53;55.79;101725.38;6136186;23;20009;-75
2022/09/22 10:58:58;;;;;;;5.30;5.00;;;;;;;17.70;57.27;101755.28;6080613;23;20690;-75
2022/09/22 11:01:54;;;;;;;6.40;6.10;;;;;;;18.30;57.06;101809.78;6129080;23;20019;-75
2022/09/22 11:04:39;;;;;;;5.95;5.65;;;;;;;18.43;54.07;101809.84;6077141;23;20146;-76
2022/09/22 11:13:41;;;;;;;5.60;5.10;;;;;;;18.28;52.34;101796.63;6087231;23;20048;-76
2022/09/22 11:16:44;;;;;;;5.75;5.40;;;;;;;17.60;52.44;101651.53;6078211;23;20034;-75
2022/09/22 11:19:23;;;;;;;5.40;5.10;;;;;;;18.62;53.22;101804.97;6066540;23;20060;-76
2022/09/22 11:22:25;;;;;;;5.40;5.10;;;;;;;18.75;53.51;101807.63;6091829;23;20066;-76
2022/09/22 11:25:31;;;;;;;5.68;5.28;;;;;;;18.50;52.66;101749.97;6045208;23;20017;-76
2022/09/22 11:28:27;;;;;;;5.57;5.28;;;;;;;18.77;50.68;101796.91;6099495;23;20066;-76
2022/09/22 11:30:56;;;;;;;5.05;4.85;;;;;;;18.48;51.25;101719.97;6110250;23;20025;-75
2022/09/22 11:34:00;;;;;;;6.32;6.03;;;;;;;18.90;50.72;101788.00;6061883;23;20028;-76
2022/09/22 11:36:43;;;;;;;6.78;6.35;;;;;;;18.90;49.68;101789.78;6056104;23;20494;-76
2022/09/22 11:39:35;;;;;;;5.68;5.38;;;;;;;18.85;49.20;101770.66;6076278;23;20029;-76
2022/09/22 11:42:56;;;;;;;6.53;5.25;;;;;;;18.57;48.49;101727.34;6103122;23;20037;-76
2022/09/22 11:45:37;;;;;;;6.35;6.05;;;;;;;18.76;49.51;101782.72;5996654;23;20102;-77
2022/09/22 11:48:26;;;;;;;5.45;5.15;;;;;;;18.65;48.91;101780.81;6101229;23;20136;-75
2022/09/22 11:51:14;;;;;;;5.30;5.10;;;;;;;18.84;50.94;101777.78;6113056;23;20016;-75
2022/09/22 11:54:08;;;;;;;5.57;5.28;;;;;;;18.81;49.19;101743.41;6103597;23;20143;-76
2022/09/22 11:56:39;;;;;;;5.72;5.38;;;;;;;18.25;46.61;101663.13;6075812;23;20381;-77
2022/09/22 11:59:40;;;;;;;5.50;5.22;;;;;;;19.00;49.47;101777.53;6092097;23;20679;-74
2022/09/22 12:02:20;;;;;;;5.47;5.18;;;;;;;19.04;47.15;101781.69;6120576;23;20033;-75
2022/09/22 12:05:01;;;;;;;5.72;5.35;;;;;;;18.58;49.62;101722.84;6114219;23;20017;-75